Time,TemperatureF,DewpointF,PressureIn,WindDirection,WindDirectionDegrees,WindSpeedMPH,WindSpeedGustMPH,Humidity,HourlyPrecipIn,Conditions,Clouds,dailyrainin,SoftwareType,DateUTC
2013-03-07 00:03:00,41.5,40.5,29.91,ESE,115,0.0,0.0,96,0.04,,,0.33,meteohub,2013-03-07 08:03:00,
2013-03-07 00:08:00,41.5,40.5,29.91,ESE,115,0.0,0.0,96,0.04,,,0.00,meteohub,2013-03-07 08:08:00,
2013-03-07 00:13:00,41.5,40.5,29.91,ESE,115,0.0,0.0,96,0.04,,,0.00,meteohub,2013-03-07 08:13:00,
2013-03-07 00:18:00,41.5,40.5,29.91,ESE,115,0.0,0.0,96,0.04,,,0.00,meteohub,2013-03-07 08:18:00,
2013-03-07 00:23:00,41.5,40.5,29.91,ESE,115,0.0,0.0,96,0.04,,,0.00,meteohub,2013-03-07 08:23:00,
2013-03-07 00:28:00,41.5,40.5,29.91,ESE,115,0.0,0.0,96,0.04,,,0.00,meteohub,2013-03-07 08:28:00,
2013-03-07 00:33:00,41.5,40.5,29.91,ESE,115,0.0,0.0,96,0.04,,,0.00,meteohub,2013-03-07 08:33:00,
2013-03-07 00:38:00,41.5,40.5,29.91,ESE,115,0.0,0.0,96,0.04,,,0.00,meteohub,2013-03-07 08:38:00,
2013-03-07 00:43:00,41.5,40.5,29.91,South,180,0.0,0.0,96,0.04,,,0.00,meteohub,2013-03-07 08:43:00,
2013-03-07 00:48:00,41.5,40.5,29.91,South,180,0.0,0.0,96,0.04,,,0.00,meteohub,2013-03-07 08:48:00,
2013-03-07 00:53:00,41.7,40.6,29.94,South,180,0.0,0.0,96,0.00,,,0.00,meteohub,2013-03-07 08:53:00,
2013-03-07 00:58:00,41.9,40.8,29.94,South,180,0.0,0.0,96,0.00,,,0.00,meteohub,2013-03-07 08:58:00,
2013-03-07 01:03:00,41.7,40.6,29.94,South,180,0.0,0.0,96,0.00,,,0.00,meteohub,2013-03-07 09:03:00,
2013-03-07 01:08:00,41.7,40.6,29.94,South,180,0.0,0.0,96,0.00,,,0.00,meteohub,2013-03-07 09:08:00,
2013-03-07 01:13:00,41.9,41.2,29.94,South,180,0.0,0.0,97,0.00,,,0.00,meteohub,2013-03-07 09:13:00,
2013-03-07 01:18:00,41.9,41.2,29.94,South,180,0.0,0.0,97,0.00,,,0.00,meteohub,2013-03-07 09:18:00,
2013-03-07 01:23:00,41.9,41.2,29.94,South,180,0.0,0.0,97,0.00,,,0.00,meteohub,2013-03-07 09:23:00,
2013-03-07 01:28:00,42.1,41.4,29.94,South,180,0.0,0.0,97,0.00,,,0.00,meteohub,2013-03-07 09:28:00,
2013-03-07 01:33:00,42.1,41.4,29.94,South,180,0.0,0.0,97,0.00,,,0.00,meteohub,2013-03-07 09:33:00,
2013-03-07 01:38:00,42.1,41.4,29.94,South,180,0.0,0.0,97,0.00,,,0.00,meteohub,2013-03-07 09:38:00,
2013-03-07 01:43:00,42.1,41.4,29.94,South,179,0.0,0.0,97,0.00,,,0.00,meteohub,2013-03-07 09:43:00,
2013-03-07 01:48:00,42.1,41.5,29.94,South,179,0.0,4.0,98,0.00,,,0.00,meteohub,2013-03-07 09:48:00,
2013-03-07 01:53:00,42.3,41.7,29.94,South,179,0.0,4.0,98,0.00,,,0.00,meteohub,2013-03-07 09:53:00,
2013-03-07 01:58:00,42.3,41.7,29.94,SE,140,0.0,4.0,98,0.00,,,0.00,meteohub,2013-03-07 09:58:00,
2013-03-07 02:03:00,42.3,41.7,29.94,SSE,156,0.0,4.0,98,0.00,,,0.00,meteohub,2013-03-07 10:03:00,
2013-03-07 02:08:00,42.3,41.7,29.94,ESE,114,0.0,4.0,98,0.00,,,0.00,meteohub,2013-03-07 10:08:00,
2013-03-07 02:13:00,42.3,41.7,29.94,SSW,205,4.0,4.0,98,0.00,,,0.00,meteohub,2013-03-07 10:13:00,
2013-03-07 02:18:00,42.3,41.7,29.94,South,186,0.0,5.0,98,0.00,,,0.00,meteohub,2013-03-07 10:18:00,
2013-03-07 02:23:00,42.1,41.5,29.94,South,186,0.0,5.0,98,0.00,,,0.00,meteohub,2013-03-07 10:23:00,
2013-03-07 02:28:00,42.3,41.7,29.94,South,186,0.0,5.0,98,0.00,,,0.00,meteohub,2013-03-07 10:28:00,
2013-03-07 02:33:00,42.1,41.5,29.94,South,186,0.0,2.0,98,0.00,,,0.00,meteohub,2013-03-07 10:33:00,
2013-03-07 02:38:00,42.1,41.5,29.96,South,178,0.0,0.0,98,0.00,,,0.00,meteohub,2013-03-07 10:38:00,
2013-03-07 02:43:00,42.1,41.5,29.96,South,178,0.0,0.0,98,0.00,,,0.00,meteohub,2013-03-07 10:43:00,
2013-03-07 02:49:00,42.1,41.5,29.96,West,265,0.0,0.0,98,0.00,,,0.00,meteohub,2013-03-07 10:49:00,
2013-03-07 02:54:00,42.1,41.5,29.96,West,268,3.0,0.0,98,0.00,,,0.00,meteohub,2013-03-07 10:54:00,
2013-03-07 02:59:00,42.1,41.5,29.96,West,268,0.0,3.0,98,0.00,,,0.00,meteohub,2013-03-07 10:59:00,
2013-03-07 03:04:00,42.1,41.5,29.96,West,268,0.0,3.0,98,0.00,,,0.00,meteohub,2013-03-07 11:04:00,
2013-03-07 03:09:00,42.1,41.5,29.96,West,268,0.0,3.0,98,0.00,,,0.00,meteohub,2013-03-07 11:09:00,
2013-03-07 03:14:00,42.1,41.5,29.96,West,268,0.0,0.0,98,0.00,,,0.00,meteohub,2013-03-07 11:14:00,
2013-03-07 03:19:00,42.1,41.5,29.96,West,268,0.0,0.0,98,0.00,,,0.00,meteohub,2013-03-07 11:19:00,
2013-03-07 03:24:00,41.9,41.4,29.94,West,268,0.0,0.0,98,0.00,,,0.00,meteohub,2013-03-07 11:24:00,
2013-03-07 03:29:00,42.1,41.5,29.94,West,268,0.0,0.0,98,0.00,,,0.00,meteohub,2013-03-07 11:29:00,
2013-03-07 03:34:00,41.9,41.4,29.94,West,268,0.0,0.0,98,0.00,,,0.00,meteohub,2013-03-07 11:34:00,
2013-03-07 03:39:00,41.9,41.4,29.96,West,268,0.0,0.0,98,0.00,,,0.00,meteohub,2013-03-07 11:39:00,
2013-03-07 03:44:00,41.7,41.2,29.96,West,268,0.0,0.0,98,0.00,,,0.00,meteohub,2013-03-07 11:44:00,
2013-03-07 03:49:00,41.7,41.2,29.96,West,268,0.0,0.0,98,0.00,,,0.00,meteohub,2013-03-07 11:49:00,
2013-03-07 03:54:00,41.7,41.2,29.96,West,268,0.0,0.0,98,0.00,,,0.00,meteohub,2013-03-07 11:54:00,
2013-03-07 03:59:00,41.7,41.2,29.96,West,268,0.0,0.0,98,0.00,,,0.00,meteohub,2013-03-07 11:59:00,
2013-03-07 04:04:00,41.7,41.2,29.96,West,268,0.0,0.0,98,0.00,,,0.00,meteohub,2013-03-07 12:04:00,
2013-03-07 04:09:00,41.7,41.2,29.96,West,268,0.0,0.0,98,0.00,,,0.00,meteohub,2013-03-07 12:09:00,
2013-03-07 04:14:00,41.7,41.2,29.96,West,268,0.0,0.0,98,0.00,,,0.00,meteohub,2013-03-07 12:14:00,
2013-03-07 04:19:00,41.7,41.2,29.96,West,268,0.0,0.0,98,0.00,,,0.00,meteohub,2013-03-07 12:19:00,
2013-03-07 04:24:00,41.5,41.0,29.96,West,268,0.0,0.0,98,0.00,,,0.00,meteohub,2013-03-07 12:24:00,
2013-03-07 04:29:00,41.5,41.0,29.96,West,268,0.0,0.0,98,0.00,,,0.00,meteohub,2013-03-07 12:29:00,
2013-03-07 04:34:00,41.5,41.0,29.96,West,268,0.0,0.0,98,0.00,,,0.00,meteohub,2013-03-07 12:34:00,
2013-03-07 04:39:00,41.5,41.0,29.99,West,268,0.0,0.0,98,0.00,,,0.00,meteohub,2013-03-07 12:39:00,
2013-03-07 04:44:00,41.5,41.0,29.99,West,268,0.0,0.0,98,0.00,,,0.00,meteohub,2013-03-07 12:44:00,
2013-03-07 04:49:00,41.5,41.0,29.99,West,268,0.0,0.0,98,0.00,,,0.00,meteohub,2013-03-07 12:49:00,
2013-03-07 04:54:00,41.5,41.0,29.99,West,268,0.0,0.0,98,0.00,,,0.00,meteohub,2013-03-07 12:54:00,
2013-03-07 04:59:00,41.5,41.0,29.99,West,268,0.0,0.0,98,0.00,,,0.00,meteohub,2013-03-07 12:59:00,
2013-03-07 05:04:00,41.4,40.8,29.99,West,268,0.0,0.0,98,0.00,,,0.00,meteohub,2013-03-07 13:04:00,
2013-03-07 05:09:00,41.4,40.8,29.99,West,268,0.0,0.0,98,0.04,,,0.04,meteohub,2013-03-07 13:09:00,
2013-03-07 05:14:00,41.4,40.8,29.99,West,268,0.0,0.0,98,0.04,,,0.04,meteohub,2013-03-07 13:14:00,
2013-03-07 05:19:00,41.4,40.8,29.99,West,268,0.0,0.0,98,0.04,,,0.04,meteohub,2013-03-07 13:19:00,
2013-03-07 05:24:00,41.4,40.8,29.99,West,268,0.0,0.0,98,0.04,,,0.04,meteohub,2013-03-07 13:24:00,
2013-03-07 05:29:00,41.4,40.8,29.99,West,268,0.0,0.0,98,0.04,,,0.04,meteohub,2013-03-07 13:29:00,
2013-03-07 05:34:00,41.4,40.8,29.99,West,268,0.0,0.0,98,0.04,,,0.04,meteohub,2013-03-07 13:34:00,
2013-03-07 05:39:00,41.2,40.6,29.99,West,268,0.0,0.0,98,0.04,,,0.04,meteohub,2013-03-07 13:39:00,
2013-03-07 05:44:00,41.2,40.6,29.99,West,268,0.0,0.0,98,0.04,,,0.04,meteohub,2013-03-07 13:44:00,
2013-03-07 05:49:00,41.2,40.6,29.99,West,268,0.0,0.0,98,0.04,,,0.04,meteohub,2013-03-07 13:49:00,
2013-03-07 05:54:00,41.2,40.6,29.99,West,268,0.0,0.0,98,0.04,,,0.04,meteohub,2013-03-07 13:54:00,
2013-03-07 06:00:00,41.2,40.6,29.99,West,268,0.0,0.0,98,0.04,,,0.04,meteohub,2013-03-07 14:00:00,
2013-03-07 06:05:00,41.2,40.6,29.99,West,268,0.0,0.0,98,0.00,,,0.04,meteohub,2013-03-07 14:05:00,
2013-03-07 06:10:00,41.2,40.6,29.99,West,268,0.0,0.0,98,0.00,,,0.04,meteohub,2013-03-07 14:10:00,
2013-03-07 06:15:00,41.2,40.6,29.99,West,268,0.0,0.0,98,0.00,,,0.04,meteohub,2013-03-07 14:15:00,
2013-03-07 06:20:00,41.2,40.6,29.99,West,268,0.0,0.0,98,0.00,,,0.04,meteohub,2013-03-07 14:20:00,
2013-03-07 06:25:00,41.2,40.6,29.99,West,268,0.0,0.0,98,0.00,,,0.04,meteohub,2013-03-07 14:25:00,
2013-03-07 06:30:00,41.2,40.6,29.99,West,268,0.0,0.0,98,0.00,,,0.04,meteohub,2013-03-07 14:30:00,
2013-03-07 06:35:00,41.2,40.6,29.99,West,268,0.0,0.0,98,0.00,,,0.04,meteohub,2013-03-07 14:35:00,
2013-03-07 06:40:00,41.2,40.6,29.99,West,268,0.0,0.0,98,0.00,,,0.04,meteohub,2013-03-07 14:40:00,
2013-03-07 06:45:00,41.2,40.6,29.99,West,268,0.0,0.0,98,0.00,,,0.04,meteohub,2013-03-07 14:45:00,
2013-03-07 06:50:00,41.2,40.6,29.99,West,268,0.0,0.0,98,0.00,,,0.04,meteohub,2013-03-07 14:50:00,
2013-03-07 06:55:00,41.4,40.8,30.02,West,268,0.0,0.0,98,0.00,,,0.04,meteohub,2013-03-07 14:55:00,
2013-03-07 07:00:00,41.4,40.8,30.02,West,268,0.0,0.0,98,0.00,,,0.04,meteohub,2013-03-07 15:00:00,
2013-03-07 07:05:00,41.5,41.0,30.02,West,268,0.0,0.0,98,0.00,,,0.04,meteohub,2013-03-07 15:05:00,
2013-03-07 07:10:00,41.5,41.0,30.02,West,268,0.0,0.0,98,0.00,,,0.04,meteohub,2013-03-07 15:10:00,
2013-03-07 07:15:00,41.7,41.2,30.02,West,268,0.0,0.0,98,0.00,,,0.04,meteohub,2013-03-07 15:15:00,
2013-03-07 07:20:00,41.7,41.2,30.02,West,268,0.0,0.0,98,0.00,,,0.04,meteohub,2013-03-07 15:20:00,
2013-03-07 07:25:00,41.9,41.4,30.02,West,268,0.0,0.0,98,0.00,,,0.04,meteohub,2013-03-07 15:25:00,
2013-03-07 07:30:00,42.1,41.5,30.02,West,268,0.0,0.0,98,0.00,,,0.04,meteohub,2013-03-07 15:30:00,
2013-03-07 07:35:00,42.1,41.5,30.02,West,268,0.0,0.0,98,0.00,,,0.04,meteohub,2013-03-07 15:35:00,
2013-03-07 07:40:00,42.1,41.5,30.02,West,268,0.0,0.0,98,0.00,,,0.04,meteohub,2013-03-07 15:40:00,
2013-03-07 07:45:00,42.3,41.7,30.02,South,170,4.0,0.0,98,0.00,,,0.04,meteohub,2013-03-07 15:45:00,
2013-03-07 07:50:00,42.4,41.9,30.02,SSE,156,0.0,4.0,98,0.00,,,0.04,meteohub,2013-03-07 15:50:00,
2013-03-07 07:55:00,42.4,41.9,30.02,South,176,0.0,4.0,98,0.00,,,0.04,meteohub,2013-03-07 15:55:00,
2013-03-07 08:00:00,42.4,41.9,30.02,SSW,200,4.0,6.0,98,0.00,,,0.04,meteohub,2013-03-07 16:00:00,
2013-03-07 08:05:00,42.6,42.1,30.02,WSW,249,3.0,6.0,98,0.00,,,0.04,meteohub,2013-03-07 16:05:00,
2013-03-07 08:10:00,42.6,42.1,30.02,SE,145,4.0,6.0,98,0.00,,,0.04,meteohub,2013-03-07 16:10:00,
2013-03-07 08:15:00,42.8,42.1,30.02,SSW,212,4.0,6.0,97,0.00,,,0.04,meteohub,2013-03-07 16:15:00,
2013-03-07 08:20:00,43.0,41.9,30.02,South,190,0.0,6.0,96,0.00,,,0.04,meteohub,2013-03-07 16:20:00,
2013-03-07 08:25:00,43.0,41.7,30.02,South,183,4.0,6.0,95,0.00,,,0.04,meteohub,2013-03-07 16:25:00,
2013-03-07 08:30:00,43.2,42.1,30.02,SW,236,0.0,6.0,96,0.00,,,0.04,meteohub,2013-03-07 16:30:00,
2013-03-07 08:35:00,43.2,42.1,30.02,SSW,212,4.0,6.0,96,0.00,,,0.04,meteohub,2013-03-07 16:35:00,
2013-03-07 08:40:00,43.3,42.3,30.05,SSW,199,0.0,7.0,96,0.00,,,0.04,meteohub,2013-03-07 16:40:00,
2013-03-07 08:45:00,43.3,42.3,30.05,SSE,158,0.0,7.0,96,0.00,,,0.04,meteohub,2013-03-07 16:45:00,
2013-03-07 08:50:00,43.5,42.4,30.05,SW,230,3.0,8.0,96,0.00,,,0.04,meteohub,2013-03-07 16:50:00,
2013-03-07 08:56:00,43.7,42.4,30.05,SE,133,6.0,8.0,95,0.00,,,0.04,meteohub,2013-03-07 16:56:00,
2013-03-07 09:01:00,43.7,42.4,30.05,SSW,195,6.0,8.0,95,0.00,,,0.04,meteohub,2013-03-07 17:01:00,
2013-03-07 09:06:00,43.7,42.1,30.05,SE,142,6.0,8.0,94,0.00,,,0.04,meteohub,2013-03-07 17:06:00,
2013-03-07 09:11:00,44.1,42.4,30.05,ESE,120,0.0,8.0,94,0.00,,,0.04,meteohub,2013-03-07 17:11:00,
2013-03-07 09:16:00,44.1,42.4,30.05,ENE,76,0.0,8.0,94,0.00,,,0.04,meteohub,2013-03-07 17:16:00,
2013-03-07 09:21:00,44.2,42.3,30.05,SW,226,8.0,8.0,93,0.00,,,0.04,meteohub,2013-03-07 17:21:00,
2013-03-07 09:26:00,44.2,41.5,30.05,SSW,210,8.0,8.0,90,0.00,,,0.04,meteohub,2013-03-07 17:26:00,
2013-03-07 09:31:00,44.4,41.7,30.05,South,182,7.0,8.0,90,0.00,,,0.04,meteohub,2013-03-07 17:31:00,
2013-03-07 09:36:00,44.4,41.2,30.05,SW,217,6.0,8.0,88,0.00,,,0.04,meteohub,2013-03-07 17:36:00,
2013-03-07 09:41:00,44.6,41.0,30.05,SE,143,0.0,11.0,87,0.00,,,0.04,meteohub,2013-03-07 17:41:00,
2013-03-07 09:46:00,44.6,41.0,30.05,SSW,206,6.0,11.0,87,0.00,,,0.04,meteohub,2013-03-07 17:46:00,
2013-03-07 09:51:00,44.6,41.0,30.05,South,189,4.0,10.0,87,0.00,,,0.04,meteohub,2013-03-07 17:51:00,
2013-03-07 09:56:00,44.6,40.6,30.05,South,190,5.0,8.0,86,0.00,,,0.04,meteohub,2013-03-07 17:56:00,
2013-03-07 10:01:00,44.8,40.8,30.05,South,179,2.0,9.0,86,0.00,,,0.04,meteohub,2013-03-07 18:01:00,
2013-03-07 10:06:00,45.1,41.5,30.05,SW,226,8.0,9.0,87,0.00,,,0.04,meteohub,2013-03-07 18:06:00,
2013-03-07 10:11:00,45.5,41.9,30.05,SSW,199,8.0,9.0,87,0.00,,,0.04,meteohub,2013-03-07 18:11:00,
2013-03-07 10:16:00,45.7,41.4,30.05,SSW,202,4.0,9.0,85,0.00,,,0.04,meteohub,2013-03-07 18:16:00,
2013-03-07 10:21:00,45.5,40.6,30.05,SE,136,3.0,9.0,83,0.00,,,0.04,meteohub,2013-03-07 18:21:00,
2013-03-07 10:26:00,45.5,41.0,30.05,SE,142,3.0,8.0,84,0.00,,,0.04,meteohub,2013-03-07 18:26:00,
2013-03-07 10:31:00,45.5,40.3,30.05,SSE,148,8.0,8.0,82,0.00,,,0.04,meteohub,2013-03-07 18:31:00,
2013-03-07 10:36:00,45.9,40.6,30.05,SE,124,3.0,8.0,82,0.00,,,0.04,meteohub,2013-03-07 18:36:00,
2013-03-07 10:41:00,45.9,38.3,30.05,SW,227,3.0,8.0,75,0.00,,,0.04,meteohub,2013-03-07 18:41:00,
2013-03-07 10:46:00,46.2,38.7,30.05,South,180,11.0,11.0,75,0.00,,,0.04,meteohub,2013-03-07 18:46:00,
2013-03-07 10:51:00,46.6,36.5,30.05,WSW,247,5.0,11.0,68,0.00,,,0.04,meteohub,2013-03-07 18:51:00,
2013-03-07 10:56:00,46.8,37.6,30.08,South,183,6.0,11.0,70,0.00,,,0.04,meteohub,2013-03-07 18:56:00,
2013-03-07 11:01:00,47.1,36.7,30.08,SE,146,3.0,11.0,67,0.00,,,0.04,meteohub,2013-03-07 19:01:00,
2013-03-07 11:06:00,47.1,36.3,30.08,SW,217,5.0,10.0,66,0.00,,,0.04,meteohub,2013-03-07 19:06:00,
2013-03-07 11:11:00,47.3,38.3,30.08,SSW,205,6.0,9.0,71,0.00,,,0.04,meteohub,2013-03-07 19:11:00,
2013-03-07 11:16:00,46.9,37.2,30.08,SE,140,3.0,11.0,69,0.00,,,0.04,meteohub,2013-03-07 19:16:00,
2013-03-07 11:22:00,47.1,39.2,30.08,ESE,116,3.0,11.0,74,0.00,,,0.04,meteohub,2013-03-07 19:22:00,
2013-03-07 11:27:00,47.3,40.1,30.08,SE,140,4.0,11.0,76,0.00,,,0.04,meteohub,2013-03-07 19:27:00,
2013-03-07 11:32:00,47.1,39.2,30.08,SSE,162,4.0,8.0,74,0.00,,,0.04,meteohub,2013-03-07 19:32:00,
2013-03-07 11:37:00,46.9,38.3,30.08,SSE,159,6.0,8.0,72,0.00,,,0.04,meteohub,2013-03-07 19:37:00,
2013-03-07 11:42:00,47.3,36.1,30.08,ESE,110,4.0,6.0,65,0.00,,,0.04,meteohub,2013-03-07 19:42:00,
2013-03-07 11:47:00,48.2,35.4,30.08,East,91,5.0,6.0,61,0.00,,,0.04,meteohub,2013-03-07 19:47:00,
2013-03-07 11:52:00,47.8,34.7,30.08,South,180,3.0,8.0,60,0.00,,,0.04,meteohub,2013-03-07 19:52:00,
2013-03-07 11:57:00,47.8,35.4,30.08,SW,222,8.0,8.0,62,0.00,,,0.04,meteohub,2013-03-07 19:57:00,
2013-03-07 12:02:00,48.7,37.6,30.08,SW,219,6.0,8.0,65,0.00,,,0.04,meteohub,2013-03-07 20:02:00,
2013-03-07 12:07:00,49.8,34.7,30.08,SE,144,3.0,10.0,56,0.00,,,0.04,meteohub,2013-03-07 20:07:00,
2013-03-07 12:12:00,49.6,31.8,30.08,South,180,8.0,10.0,50,0.00,,,0.04,meteohub,2013-03-07 20:12:00,
2013-03-07 12:17:00,49.8,33.8,30.08,SE,130,4.0,12.0,54,0.00,,,0.04,meteohub,2013-03-07 20:17:00,
2013-03-07 12:22:00,50.4,32.4,30.08,South,183,6.0,12.0,50,0.00,,,0.04,meteohub,2013-03-07 20:22:00,
2013-03-07 12:27:00,50.9,32.9,30.08,ESE,121,0.0,12.0,50,0.00,,,0.04,meteohub,2013-03-07 20:27:00,
2013-03-07 12:32:00,50.4,31.5,30.08,SE,124,3.0,8.0,48,0.00,,,0.04,meteohub,2013-03-07 20:32:00,
2013-03-07 12:37:00,50.7,32.7,30.08,West,280,3.0,8.0,50,0.00,,,0.04,meteohub,2013-03-07 20:37:00,
2013-03-07 12:42:00,50.7,31.3,30.08,South,190,5.0,5.0,47,0.00,,,0.04,meteohub,2013-03-07 20:42:00,
2013-03-07 12:48:00,51.1,31.1,30.08,ESE,117,0.0,9.0,46,0.00,,,0.04,meteohub,2013-03-07 20:48:00,
2013-03-07 12:53:00,51.6,31.5,30.05,NW,312,0.0,9.0,46,0.00,,,0.04,meteohub,2013-03-07 20:53:00,
2013-03-07 12:58:00,51.6,30.4,30.05,South,178,6.0,9.0,44,0.00,,,0.04,meteohub,2013-03-07 20:58:00,
2013-03-07 13:03:00,51.3,30.0,30.05,South,185,7.0,8.0,44,0.00,,,0.04,meteohub,2013-03-07 21:03:00,
2013-03-07 13:08:00,50.4,28.8,30.05,WSW,250,5.0,8.0,43,0.00,,,0.04,meteohub,2013-03-07 21:08:00,
2013-03-07 13:13:00,50.5,31.6,30.05,SW,214,3.0,8.0,48,0.00,,,0.04,meteohub,2013-03-07 21:13:00,
2013-03-07 13:18:00,50.0,30.6,30.05,South,169,4.0,7.0,47,0.00,,,0.04,meteohub,2013-03-07 21:18:00,
2013-03-07 13:23:00,50.7,31.8,30.05,South,191,0.0,9.0,48,0.00,,,0.04,meteohub,2013-03-07 21:23:00,
2013-03-07 13:28:00,50.9,30.9,30.05,South,179,4.0,9.0,46,0.00,,,0.04,meteohub,2013-03-07 21:28:00,
2013-03-07 13:33:00,51.4,31.8,30.05,ESE,102,2.0,6.0,47,0.00,,,0.04,meteohub,2013-03-07 21:33:00,
2013-03-07 13:38:00,51.6,32.0,30.05,SE,134,4.0,6.0,47,0.00,,,0.04,meteohub,2013-03-07 21:38:00,
2013-03-07 13:43:00,51.1,31.1,30.05,ESE,113,3.0,6.0,46,0.00,,,0.04,meteohub,2013-03-07 21:43:00,
2013-03-07 13:48:00,51.8,29.5,30.05,ENE,77,3.0,6.0,42,0.00,,,0.04,meteohub,2013-03-07 21:48:00,
2013-03-07 13:53:00,52.0,31.3,30.05,SSE,157,4.0,6.0,45,0.00,,,0.04,meteohub,2013-03-07 21:53:00,
2013-03-07 13:58:00,51.6,29.8,30.05,ESE,105,3.0,6.0,43,0.00,,,0.04,meteohub,2013-03-07 21:58:00,
2013-03-07 14:03:00,52.2,29.8,30.05,NNE,18,3.0,6.0,42,0.00,,,0.04,meteohub,2013-03-07 22:03:00,
2013-03-07 14:09:00,52.5,30.7,30.05,North,357,0.0,6.0,43,0.00,,,0.04,meteohub,2013-03-07 22:09:00,
2013-03-07 14:14:00,52.9,29.3,30.05,SSE,147,3.0,4.0,40,0.00,,,0.04,meteohub,2013-03-07 22:14:00,
2013-03-07 14:19:00,53.2,30.2,30.05,SW,220,4.0,6.0,41,0.00,,,0.04,meteohub,2013-03-07 22:19:00,
2013-03-07 14:24:00,52.7,27.1,30.05,SSE,164,3.0,6.0,37,0.00,,,0.04,meteohub,2013-03-07 22:24:00,
2013-03-07 14:29:00,52.2,26.1,30.05,South,171,5.0,6.0,36,0.00,,,0.04,meteohub,2013-03-07 22:29:00,
2013-03-07 14:34:00,52.2,26.6,30.05,SSE,152,5.0,6.0,37,0.00,,,0.04,meteohub,2013-03-07 22:34:00,
2013-03-07 14:39:00,52.3,26.2,30.05,South,188,0.0,9.0,36,0.00,,,0.04,meteohub,2013-03-07 22:39:00,
2013-03-07 14:44:00,51.8,25.7,30.05,SSE,150,0.0,9.0,36,0.00,,,0.04,meteohub,2013-03-07 22:44:00,
2013-03-07 14:49:00,51.6,26.2,30.05,SSE,156,3.0,9.0,37,0.00,,,0.04,meteohub,2013-03-07 22:49:00,
2013-03-07 14:54:00,51.4,26.1,30.05,SSE,167,3.0,6.0,37,0.00,,,0.04,meteohub,2013-03-07 22:54:00,
2013-03-07 14:59:00,51.4,26.6,30.05,SSE,154,3.0,6.0,38,0.00,,,0.04,meteohub,2013-03-07 22:59:00,
2013-03-07 15:04:00,51.6,26.8,30.05,SE,140,0.0,5.0,38,0.00,,,0.04,meteohub,2013-03-07 23:04:00,
2013-03-07 15:09:00,51.6,26.2,30.05,SSW,211,0.0,5.0,37,0.00,,,0.04,meteohub,2013-03-07 23:09:00,
2013-03-07 15:14:00,51.6,26.8,30.05,NNW,331,0.0,5.0,38,0.00,,,0.04,meteohub,2013-03-07 23:14:00,
2013-03-07 15:19:00,52.0,27.1,30.05,SE,128,0.0,4.0,38,0.00,,,0.04,meteohub,2013-03-07 23:19:00,
2013-03-07 15:24:00,52.2,27.3,30.05,ESE,113,4.0,4.0,38,0.00,,,0.04,meteohub,2013-03-07 23:24:00,
2013-03-07 15:30:00,51.8,26.4,30.05,South,179,6.0,6.0,37,0.00,,,0.04,meteohub,2013-03-07 23:30:00,
2013-03-07 15:35:00,51.4,24.6,30.05,South,186,4.0,6.0,35,0.00,,,0.04,meteohub,2013-03-07 23:35:00,
2013-03-07 15:40:00,51.6,26.2,30.05,SE,135,0.0,6.0,37,0.00,,,0.04,meteohub,2013-03-07 23:40:00,
2013-03-07 15:45:00,51.6,25.5,30.05,ESE,105,0.0,6.0,36,0.00,,,0.04,meteohub,2013-03-07 23:45:00,
2013-03-07 15:50:00,51.6,26.2,30.05,SSW,204,0.0,3.0,37,0.00,,,0.04,meteohub,2013-03-07 23:50:00,
2013-03-07 15:55:00,51.4,26.6,30.05,NNW,333,0.0,3.0,38,0.00,,,0.04,meteohub,2013-03-07 23:55:00,
2013-03-07 16:00:00,51.3,26.6,30.05,NNW,333,0.0,0.0,38,0.00,,,0.04,meteohub,2013-03-08 00:00:00,
2013-03-07 16:05:00,51.3,27.1,30.05,NNW,333,0.0,0.0,39,0.00,,,0.04,meteohub,2013-03-08 00:05:00,
2013-03-07 16:10:00,51.3,26.6,30.05,NNW,333,0.0,0.0,38,0.00,,,0.04,meteohub,2013-03-08 00:10:00,
2013-03-07 16:15:00,51.3,27.1,30.05,NNW,333,0.0,0.0,39,0.00,,,0.04,meteohub,2013-03-08 00:15:00,
2013-03-07 16:20:00,50.9,30.9,30.05,NW,319,0.0,0.0,46,0.00,,,0.04,meteohub,2013-03-08 00:20:00,
2013-03-07 16:25:00,50.7,31.3,30.05,North,1,0.0,0.0,47,0.00,,,0.04,meteohub,2013-03-08 00:25:00,
2013-03-07 16:30:00,50.5,30.6,30.05,North,1,0.0,0.0,46,0.00,,,0.04,meteohub,2013-03-08 00:30:00,
2013-03-07 16:35:00,50.4,32.4,30.05,North,1,0.0,0.0,50,0.00,,,0.04,meteohub,2013-03-08 00:35:00,
2013-03-07 16:40:00,50.2,33.3,30.05,North,1,0.0,0.0,52,0.00,,,0.04,meteohub,2013-03-08 00:40:00,
2013-03-07 16:45:00,50.2,31.8,30.05,North,0,0.0,0.0,49,0.00,,,0.04,meteohub,2013-03-08 00:45:00,
2013-03-07 16:50:00,50.0,30.6,30.05,NNW,335,0.0,0.0,47,0.00,,,0.04,meteohub,2013-03-08 00:50:00,
2013-03-07 16:55:00,49.8,32.4,30.05,NNW,335,0.0,0.0,51,0.00,,,0.04,meteohub,2013-03-08 00:55:00,
2013-03-07 17:00:00,49.5,34.0,30.05,NNW,335,0.0,0.0,55,0.00,,,0.04,meteohub,2013-03-08 01:00:00,
2013-03-07 17:05:00,49.1,35.8,30.05,NNW,335,0.0,0.0,60,0.00,,,0.04,meteohub,2013-03-08 01:05:00,
2013-03-07 17:10:00,48.7,36.3,30.05,NNW,335,0.0,0.0,62,0.00,,,0.04,meteohub,2013-03-08 01:10:00,
2013-03-07 17:15:00,48.6,36.9,30.05,NNW,335,0.0,0.0,64,0.00,,,0.04,meteohub,2013-03-08 01:15:00,
2013-03-07 17:20:00,48.4,37.6,30.05,NNW,335,0.0,0.0,66,0.00,,,0.04,meteohub,2013-03-08 01:20:00,
2013-03-07 17:25:00,48.0,37.6,30.05,NNW,335,0.0,0.0,67,0.00,,,0.04,meteohub,2013-03-08 01:25:00,
2013-03-07 17:30:00,47.8,37.8,30.05,NNW,335,0.0,0.0,68,0.00,,,0.04,meteohub,2013-03-08 01:30:00,
2013-03-07 17:35:00,47.7,37.6,30.05,NNW,335,0.0,0.0,68,0.00,,,0.04,meteohub,2013-03-08 01:35:00,
2013-03-07 17:40:00,47.7,37.9,30.05,North,4,3.0,4.0,69,0.00,,,0.04,meteohub,2013-03-08 01:40:00,
2013-03-07 17:45:00,47.3,37.2,30.05,North,4,0.0,4.0,68,0.00,,,0.04,meteohub,2013-03-08 01:45:00,
2013-03-07 17:50:00,47.1,37.0,30.05,North,4,0.0,4.0,68,0.00,,,0.04,meteohub,2013-03-08 01:50:00,
2013-03-07 17:55:00,47.1,38.1,30.05,North,4,0.0,3.0,71,0.00,,,0.04,meteohub,2013-03-08 01:55:00,
2013-03-07 18:01:00,46.9,40.8,30.05,North,4,0.0,0.0,79,0.00,,,0.04,meteohub,2013-03-08 02:01:00,
2013-03-07 18:06:00,46.9,41.7,30.05,North,4,0.0,0.0,82,0.00,,,0.04,meteohub,2013-03-08 02:06:00,
2013-03-07 18:11:00,46.8,42.4,30.08,North,4,0.0,0.0,85,0.00,,,0.04,meteohub,2013-03-08 02:11:00,
2013-03-07 18:16:00,46.6,42.6,30.08,WNW,303,3.0,0.0,86,0.00,,,0.04,meteohub,2013-03-08 02:16:00,
2013-03-07 18:21:00,46.6,43.0,30.08,WNW,302,3.0,4.0,87,0.00,,,0.04,meteohub,2013-03-08 02:21:00,
2013-03-07 18:26:00,46.6,43.2,30.08,NNW,338,3.0,4.0,88,0.00,,,0.04,meteohub,2013-03-08 02:26:00,
2013-03-07 18:31:00,46.6,43.5,30.08,NNW,338,2.0,4.0,89,0.00,,,0.04,meteohub,2013-03-08 02:31:00,
2013-03-07 18:36:00,46.4,43.3,30.08,NNW,338,3.0,4.0,89,0.00,,,0.04,meteohub,2013-03-08 02:36:00,
2013-03-07 18:41:00,46.4,43.3,30.08,NW,310,3.0,4.0,89,0.00,,,0.04,meteohub,2013-03-08 02:41:00,
2013-03-07 18:46:00,46.4,43.0,30.08,NNW,339,3.0,5.0,88,0.00,,,0.04,meteohub,2013-03-08 02:46:00,
2013-03-07 18:51:00,46.0,43.0,30.08,West,272,4.0,6.0,89,0.00,,,0.04,meteohub,2013-03-08 02:51:00,
2013-03-07 18:56:00,45.9,43.2,30.08,NW,319,4.0,6.0,90,0.00,,,0.04,meteohub,2013-03-08 02:56:00,
2013-03-07 19:01:00,45.7,43.0,30.08,NW,320,4.0,5.0,90,0.00,,,0.04,meteohub,2013-03-08 03:01:00,
2013-03-07 19:06:00,45.5,43.0,30.08,North,353,4.0,5.0,91,0.00,,,0.04,meteohub,2013-03-08 03:06:00,
2013-03-07 19:11:00,45.3,42.8,30.08,NW,318,4.0,6.0,91,0.00,,,0.04,meteohub,2013-03-08 03:11:00,
2013-03-07 19:16:00,45.1,42.4,30.08,North,357,4.0,6.0,90,0.00,,,0.04,meteohub,2013-03-08 03:16:00,
2013-03-07 19:21:00,45.0,42.4,30.08,NW,311,2.0,6.0,91,0.00,,,0.04,meteohub,2013-03-08 03:21:00,
2013-03-07 19:26:00,44.6,42.4,30.08,NW,314,3.0,5.0,92,0.00,,,0.04,meteohub,2013-03-08 03:26:00,
2013-03-07 19:31:00,44.4,42.4,30.08,NW,323,3.0,4.0,93,0.00,,,0.04,meteohub,2013-03-08 03:31:00,
2013-03-07 19:36:00,44.2,42.3,30.08,NW,323,0.0,4.0,93,0.00,,,0.04,meteohub,2013-03-08 03:36:00,
2013-03-07 19:41:00,44.2,42.6,30.08,NW,313,3.0,4.0,94,0.00,,,0.04,meteohub,2013-03-08 03:41:00,
2013-03-07 19:46:00,44.2,42.6,30.08,NW,326,0.0,4.0,94,0.00,,,0.04,meteohub,2013-03-08 03:46:00,
2013-03-07 19:51:00,43.9,42.3,30.08,NNW,331,0.0,4.0,94,0.00,,,0.04,meteohub,2013-03-08 03:51:00,
2013-03-07 19:56:00,43.7,42.4,30.08,West,267,2.0,4.0,95,0.00,,,0.04,meteohub,2013-03-08 03:56:00,
2013-03-07 20:01:00,43.5,42.4,30.08,West,267,3.0,4.0,96,0.00,,,0.04,meteohub,2013-03-08 04:01:00,
2013-03-07 20:06:00,43.3,42.6,30.08,West,267,2.0,4.0,97,0.00,,,0.04,meteohub,2013-03-08 04:06:00,
2013-03-07 20:11:00,43.3,42.6,30.08,West,260,3.0,6.0,97,0.00,,,0.04,meteohub,2013-03-08 04:11:00,
2013-03-07 20:16:00,43.3,42.6,30.08,West,267,3.0,6.0,97,0.00,,,0.04,meteohub,2013-03-08 04:16:00,
2013-03-07 20:21:00,43.2,42.4,30.08,West,267,0.0,6.0,97,0.00,,,0.04,meteohub,2013-03-08 04:21:00,
2013-03-07 20:26:00,43.0,42.3,30.08,NW,308,3.0,6.0,97,0.00,,,0.04,meteohub,2013-03-08 04:26:00,
2013-03-07 20:32:00,43.2,42.6,30.08,NW,310,3.0,6.0,98,0.00,,,0.04,meteohub,2013-03-08 04:32:00,
2013-03-07 20:37:00,43.0,42.3,30.08,SW,227,3.0,6.0,97,0.00,,,0.04,meteohub,2013-03-08 04:37:00,
2013-03-07 20:42:00,42.8,42.1,30.08,NW,305,4.0,6.0,97,0.00,,,0.04,meteohub,2013-03-08 04:42:00,
2013-03-07 20:47:00,42.8,42.1,30.08,WNW,301,6.0,6.0,97,0.00,,,0.04,meteohub,2013-03-08 04:47:00,
2013-03-07 20:52:00,42.8,42.1,30.08,WNW,300,4.0,6.0,97,0.00,,,0.04,meteohub,2013-03-08 04:52:00,
2013-03-07 20:57:00,42.6,42.1,30.08,WNW,302,3.0,6.0,98,0.00,,,0.04,meteohub,2013-03-08 04:57:00,
2013-03-07 21:00:00,42.6,42.1,30.08,WNW,302,3.0,6.0,98,0.00,,,0.04,meteohub,2013-03-08 05:00:00,
2013-03-07 21:01:00,42.4,41.9,30.08,WNW,302,3.0,6.0,98,0.00,,,0.04,meteohub,2013-03-08 05:01:00,
2013-03-07 21:02:00,42.4,41.9,30.08,WNW,302,3.0,6.0,98,0.00,,,0.04,meteohub,2013-03-08 05:02:00,
2013-03-07 21:07:00,42.3,41.7,30.08,WNW,302,3.0,4.0,98,0.00,,,0.04,meteohub,2013-03-08 05:07:00,
2013-03-07 21:12:00,42.3,41.7,30.08,WNW,302,3.0,4.0,98,0.00,,,0.04,meteohub,2013-03-08 05:12:00,
2013-03-07 21:17:00,42.1,41.5,30.08,WNW,302,0.0,4.0,98,0.00,,,0.04,meteohub,2013-03-08 05:17:00,
2013-03-07 21:22:00,41.9,41.4,30.08,WNW,302,0.0,4.0,98,0.00,,,0.04,meteohub,2013-03-08 05:22:00,
2013-03-07 21:27:00,41.7,41.2,30.08,WNW,302,2.0,4.0,98,0.00,,,0.04,meteohub,2013-03-08 05:27:00,
2013-03-07 21:32:00,41.5,41.0,30.08,WNW,302,3.0,3.0,98,0.00,,,0.04,meteohub,2013-03-08 05:32:00,
2013-03-07 21:37:00,41.5,41.0,30.08,WNW,302,2.0,3.0,98,0.00,,,0.04,meteohub,2013-03-08 05:37:00,
2013-03-07 21:42:00,41.5,41.0,30.08,NW,312,4.0,4.0,98,0.00,,,0.04,meteohub,2013-03-08 05:42:00,
2013-03-07 21:46:00,41.4,40.8,30.08,NW,312,3.0,4.0,98,0.00,,,0.04,meteohub,2013-03-08 05:46:00,
2013-03-07 21:52:00,41.4,40.8,30.08,NW,312,2.0,4.0,98,0.00,,,0.04,meteohub,2013-03-08 05:52:00,
2013-03-07 21:57:00,41.2,40.6,30.08,NW,312,0.0,4.0,98,0.00,,,0.04,meteohub,2013-03-08 05:57:00,
2013-03-07 22:02:00,41.2,40.6,30.08,NW,312,0.0,3.0,98,0.00,,,0.04,meteohub,2013-03-08 06:02:00,
2013-03-07 22:07:00,41.0,40.5,30.11,NW,313,0.0,3.0,98,0.00,,,0.04,meteohub,2013-03-08 06:07:00,
2013-03-07 22:12:00,41.0,40.5,30.11,NW,312,0.0,0.0,98,0.00,,,0.04,meteohub,2013-03-08 06:12:00,
2013-03-07 22:17:00,40.8,40.3,30.11,WNW,301,4.0,0.0,98,0.00,,,0.04,meteohub,2013-03-08 06:17:00,
2013-03-07 22:22:00,40.8,40.3,30.11,NW,325,2.0,5.0,98,0.00,,,0.04,meteohub,2013-03-08 06:22:00,
2013-03-07 22:27:00,40.6,40.1,30.11,NW,325,3.0,5.0,98,0.00,,,0.04,meteohub,2013-03-08 06:27:00,
2013-03-07 22:32:00,40.6,40.1,30.11,West,277,3.0,5.0,98,0.00,,,0.04,meteohub,2013-03-08 06:32:00,
2013-03-07 22:37:00,40.6,40.1,30.11,NW,320,3.0,4.0,98,0.00,,,0.04,meteohub,2013-03-08 06:37:00,
2013-03-07 22:42:00,40.6,40.1,30.11,NNW,327,3.0,4.0,98,0.00,,,0.04,meteohub,2013-03-08 06:42:00,
2013-03-07 22:47:00,40.6,40.1,30.11,NNW,327,3.0,4.0,98,0.00,,,0.04,meteohub,2013-03-08 06:47:00,
2013-03-07 22:52:00,40.6,40.1,30.11,NNW,327,3.0,4.0,98,0.00,,,0.04,meteohub,2013-03-08 06:52:00,
2013-03-07 22:57:00,40.6,40.1,30.11,NW,312,3.0,4.0,98,0.00,,,0.04,meteohub,2013-03-08 06:57:00,
2013-03-07 23:02:00,40.6,40.1,30.11,West,275,3.0,4.0,98,0.00,,,0.04,meteohub,2013-03-08 07:02:00,
2013-03-07 23:07:00,40.5,39.9,30.11,West,274,2.0,4.0,98,0.00,,,0.04,meteohub,2013-03-08 07:07:00,
2013-03-07 23:12:00,40.5,39.9,30.11,West,274,0.0,4.0,98,0.00,,,0.04,meteohub,2013-03-08 07:12:00,
2013-03-07 23:17:00,40.5,39.9,30.11,West,275,0.0,3.0,98,0.00,,,0.04,meteohub,2013-03-08 07:17:00,
2013-03-07 23:22:00,40.5,39.9,30.11,NNW,329,4.0,4.0,98,0.00,,,0.04,meteohub,2013-03-08 07:22:00,
2013-03-07 23:27:00,41.0,40.5,30.11,NNW,344,5.0,6.0,98,0.00,,,0.04,meteohub,2013-03-08 07:27:00,
2013-03-07 23:32:00,41.2,40.6,30.11,North,353,4.0,6.0,98,0.00,,,0.04,meteohub,2013-03-08 07:32:00,
2013-03-07 23:37:00,41.5,41.0,30.11,NNW,338,5.0,6.0,98,0.00,,,0.04,meteohub,2013-03-08 07:37:00,
2013-03-07 23:42:00,41.7,41.2,30.11,NNW,348,5.0,8.0,98,0.00,,,0.04,meteohub,2013-03-08 07:42:00,
2013-03-07 23:47:00,41.9,41.4,30.11,NNW,331,6.0,9.0,98,0.00,,,0.04,meteohub,2013-03-08 07:47:00,
2013-03-07 23:52:00,41.9,41.4,30.11,North,7,6.0,9.0,98,0.00,,,0.04,meteohub,2013-03-08 07:52:00,
2013-03-07 23:57:00,41.9,41.4,30.11,North,353,4.0,9.0,98,0.00,,,0.04,meteohub,2013-03-08 07:57:00,